sensor_id;sensor_type;location;lat;lon;timestamp;P1;durP1;ratioP1;P2;durP2;ratioP2
32808;SDS011;19159;48.178;16.386;2023-11-18T00:00:25;2.10;;;1.55;;
32808;SDS011;19159;48.178;16.386;2023-11-18T00:02:51;2.78;;;1.88;;
32808;SDS011;19159;48.178;16.386;2023-11-18T00:05:16;2.58;;;1.50;;
32808;SDS011;19159;48.178;16.386;2023-11-18T00:07:42;2.65;;;1.60;;
32808;SDS011;19159;48.178;16.386;2023-11-18T00:10:08;1.88;;;1.63;;
32808;SDS011;19159;48.178;16.386;2023-11-18T00:12:35;2.65;;;1.60;;
32808;SDS011;19159;48.178;16.386;2023-11-18T00:15:04;3.20;;;1.83;;
32808;SDS011;19159;48.178;16.386;2023-11-18T00:17:30;3.47;;;1.90;;
32808;SDS011;19159;48.178;16.386;2023-11-18T00:19:57;2.10;;;1.70;;
32808;SDS011;19159;48.178;16.386;2023-11-18T00:22:22;3.40;;;2.00;;
32808;SDS011;19159;48.178;16.386;2023-11-18T00:24:48;1.75;;;1.42;;
32808;SDS011;19159;48.178;16.386;2023-11-18T00:27:14;2.00;;;1.60;;
32808;SDS011;19159;48.178;16.386;2023-11-18T00:29:40;3.30;;;1.77;;
32808;SDS011;19159;48.178;16.386;2023-11-18T00:32:06;3.78;;;1.63;;
32808;SDS011;19159;48.178;16.386;2023-11-18T00:34:35;3.88;;;1.60;;
32808;SDS011;19159;48.178;16.386;2023-11-18T00:37:00;2.28;;;1.45;;
32808;SDS011;19159;48.178;16.386;2023-11-18T00:39:26;1.58;;;1.30;;
32808;SDS011;19159;48.178;16.386;2023-11-18T00:41:52;1.90;;;1.33;;
32808;SDS011;19159;48.178;16.386;2023-11-18T00:44:18;1.20;;;1.05;;
32808;SDS011;19159;48.178;16.386;2023-11-18T00:46:44;3.28;;;1.35;;
32808;SDS011;19159;48.178;16.386;2023-11-18T00:49:10;1.55;;;1.35;;
32808;SDS011;19159;48.178;16.386;2023-11-18T00:51:37;3.63;;;1.38;;
32808;SDS011;19159;48.178;16.386;2023-11-18T00:54:03;2.30;;;1.63;;
32808;SDS011;19159;48.178;16.386;2023-11-18T00:56:32;3.03;;;1.40;;
32808;SDS011;19159;48.178;16.386;2023-11-18T00:58:58;2.20;;;1.60;;
32808;SDS011;19159;48.178;16.386;2023-11-18T01:01:23;2.50;;;1.55;;
32808;SDS011;19159;48.178;16.386;2023-11-18T01:03:49;3.58;;;1.33;;
32808;SDS011;19159;48.178;16.386;2023-11-18T01:06:15;2.28;;;1.50;;
32808;SDS011;19159;48.178;16.386;2023-11-18T01:08:44;2.20;;;1.65;;
32808;SDS011;19159;48.178;16.386;2023-11-18T01:11:10;6.07;;;1.60;;
32808;SDS011;19159;48.178;16.386;2023-11-18T01:13:36;2.28;;;1.55;;
32808;SDS011;19159;48.178;16.386;2023-11-18T01:16:01;2.75;;;1.40;;
32808;SDS011;19159;48.178;16.386;2023-11-18T01:18:29;3.40;;;1.50;;
32808;SDS011;19159;48.178;16.386;2023-11-18T01:20:55;2.97;;;1.70;;
32808;SDS011;19159;48.178;16.386;2023-11-18T01:23:21;3.72;;;1.30;;
32808;SDS011;19159;48.178;16.386;2023-11-18T01:25:46;2.95;;;1.38;;
32808;SDS011;19159;48.178;16.386;2023-11-18T01:28:15;1.73;;;1.40;;
32808;SDS011;19159;48.178;16.386;2023-11-18T01:30:40;2.63;;;1.58;;
32808;SDS011;19159;48.178;16.386;2023-11-18T01:33:07;2.33;;;1.67;;
32808;SDS011;19159;48.178;16.386;2023-11-18T01:35:33;1.83;;;1.60;;
32808;SDS011;19159;48.178;16.386;2023-11-18T01:37:58;2.13;;;1.63;;
32808;SDS011;19159;48.178;16.386;2023-11-18T01:40:24;1.90;;;1.55;;
32808;SDS011;19159;48.178;16.386;2023-11-18T01:42:49;2.65;;;1.88;;
32808;SDS011;19159;48.178;16.386;2023-11-18T01:45:15;2.30;;;1.60;;
32808;SDS011;19159;48.178;16.386;2023-11-18T01:47:44;2.80;;;1.65;;
32808;SDS011;19159;48.178;16.386;2023-11-18T01:50:13;3.85;;;1.58;;
32808;SDS011;19159;48.178;16.386;2023-11-18T01:52:42;3.28;;;1.50;;
32808;SDS011;19159;48.178;16.386;2023-11-18T01:55:09;2.60;;;1.70;;
32808;SDS011;19159;48.178;16.386;2023-11-18T01:57:35;3.15;;;1.88;;
32808;SDS011;19159;48.178;16.386;2023-11-18T02:00:02;2.40;;;1.20;;
32808;SDS011;19159;48.178;16.386;2023-11-18T02:02:31;2.50;;;1.27;;
32808;SDS011;19159;48.178;16.386;2023-11-18T02:04:58;2.95;;;1.60;;
32808;SDS011;19159;48.178;16.386;2023-11-18T02:07:26;1.65;;;1.25;;
32808;SDS011;19159;48.178;16.386;2023-11-18T02:09:53;2.00;;;1.40;;
32808;SDS011;19159;48.178;16.386;2023-11-18T02:12:27;1.92;;;1.58;;
32808;SDS011;19159;48.178;16.386;2023-11-18T02:14:59;1.30;;;1.20;;
32808;SDS011;19159;48.178;16.386;2023-11-18T02:17:26;2.42;;;1.40;;
32808;SDS011;19159;48.178;16.386;2023-11-18T02:19:54;1.73;;;1.20;;
32808;SDS011;19159;48.178;16.386;2023-11-18T02:22:22;2.65;;;1.38;;
32808;SDS011;19159;48.178;16.386;2023-11-18T02:24:48;2.92;;;1.48;;
32808;SDS011;19159;48.178;16.386;2023-11-18T02:27:15;2.33;;;1.42;;
32808;SDS011;19159;48.178;16.386;2023-11-18T02:29:42;1.50;;;1.10;;
32808;SDS011;19159;48.178;16.386;2023-11-18T02:32:28;2.53;;;1.35;;
32808;SDS011;19159;48.178;16.386;2023-11-18T02:35:05;2.22;;;1.20;;
32808;SDS011;19159;48.178;16.386;2023-11-18T02:37:52;2.17;;;1.20;;
32808;SDS011;19159;48.178;16.386;2023-11-18T02:40:20;2.17;;;1.38;;
32808;SDS011;19159;48.178;16.386;2023-11-18T02:42:55;1.48;;;1.27;;
32808;SDS011;19159;48.178;16.386;2023-11-18T02:45:24;1.50;;;1.23;;
32808;SDS011;19159;48.178;16.386;2023-11-18T02:47:50;2.53;;;1.30;;
32808;SDS011;19159;48.178;16.386;2023-11-18T02:50:16;2.88;;;1.88;;
32808;SDS011;19159;48.178;16.386;2023-11-18T02:52:44;1.75;;;1.27;;
32808;SDS011;19159;48.178;16.386;2023-11-18T02:55:09;4.03;;;1.58;;
32808;SDS011;19159;48.178;16.386;2023-11-18T02:57:36;1.73;;;1.20;;
32808;SDS011;19159;48.178;16.386;2023-11-18T03:00:02;1.95;;;1.30;;
32808;SDS011;19159;48.178;16.386;2023-11-18T03:02:29;2.00;;;1.50;;
32808;SDS011;19159;48.178;16.386;2023-11-18T03:04:58;3.20;;;1.20;;
32808;SDS011;19159;48.178;16.386;2023-11-18T03:07:24;1.35;;;1.10;;
32808;SDS011;19159;48.178;16.386;2023-11-18T03:09:52;2.75;;;1.40;;
32808;SDS011;19159;48.178;16.386;2023-11-18T03:12:36;1.65;;;1.20;;
32808;SDS011;19159;48.178;16.386;2023-11-18T03:15:03;2.35;;;1.30;;
32808;SDS011;19159;48.178;16.386;2023-11-18T03:17:34;1.83;;;1.35;;
32808;SDS011;19159;48.178;16.386;2023-11-18T03:20:00;2.50;;;1.20;;
32808;SDS011;19159;48.178;16.386;2023-11-18T03:22:25;1.92;;;1.20;;
32808;SDS011;19159;48.178;16.386;2023-11-18T03:24:51;2.10;;;1.30;;
32808;SDS011;19159;48.178;16.386;2023-11-18T03:27:17;1.63;;;1.40;;
32808;SDS011;19159;48.178;16.386;2023-11-18T03:29:43;1.83;;;1.10;;
32808;SDS011;19159;48.178;16.386;2023-11-18T03:32:11;1.52;;;1.23;;
32808;SDS011;19159;48.178;16.386;2023-11-18T03:34:37;1.27;;;1.17;;
32808;SDS011;19159;48.178;16.386;2023-11-18T03:37:03;2.08;;;1.13;;
32808;SDS011;19159;48.178;16.386;2023-11-18T03:39:28;1.80;;;1.17;;
32808;SDS011;19159;48.178;16.386;2023-11-18T03:41:55;2.13;;;1.13;;
32808;SDS011;19159;48.178;16.386;2023-11-18T03:44:22;2.05;;;1.10;;
32808;SDS011;19159;48.178;16.386;2023-11-18T03:46:49;1.98;;;1.13;;
32808;SDS011;19159;48.178;16.386;2023-11-18T03:49:15;2.95;;;1.30;;
32808;SDS011;19159;48.178;16.386;2023-11-18T03:51:40;2.78;;;1.20;;
32808;SDS011;19159;48.178;16.386;2023-11-18T03:54:06;2.13;;;1.50;;
32808;SDS011;19159;48.178;16.386;2023-11-18T03:56:33;1.35;;;1.00;;
32808;SDS011;19159;48.178;16.386;2023-11-18T03:58:59;0.80;;;0.80;;
32808;SDS011;19159;48.178;16.386;2023-11-18T04:01:25;1.77;;;1.15;;
32808;SDS011;19159;48.178;16.386;2023-11-18T04:03:53;1.38;;;1.00;;
32808;SDS011;19159;48.178;16.386;2023-11-18T04:06:20;1.55;;;1.10;;
32808;SDS011;19159;48.178;16.386;2023-11-18T04:08:47;1.23;;;1.05;;
32808;SDS011;19159;48.178;16.386;2023-11-18T04:11:13;2.22;;;0.95;;
32808;SDS011;19159;48.178;16.386;2023-11-18T04:13:40;1.58;;;1.00;;
32808;SDS011;19159;48.178;16.386;2023-11-18T04:16:12;1.20;;;1.05;;
32808;SDS011;19159;48.178;16.386;2023-11-18T04:18:41;2.60;;;1.38;;
32808;SDS011;19159;48.178;16.386;2023-11-18T04:21:08;2.08;;;1.42;;
32808;SDS011;19159;48.178;16.386;2023-11-18T04:23:36;2.42;;;1.55;;
32808;SDS011;19159;48.178;16.386;2023-11-18T04:26:03;2.13;;;1.50;;
32808;SDS011;19159;48.178;16.386;2023-11-18T04:28:29;4.75;;;1.55;;
32808;SDS011;19159;48.178;16.386;2023-11-18T04:30:55;2.72;;;1.48;;
32808;SDS011;19159;48.178;16.386;2023-11-18T04:33:21;1.52;;;1.20;;
32808;SDS011;19159;48.178;16.386;2023-11-18T04:35:47;3.53;;;1.50;;
32808;SDS011;19159;48.178;16.386;2023-11-18T04:38:12;3.97;;;1.50;;
32808;SDS011;19159;48.178;16.386;2023-11-18T04:40:38;3.50;;;1.50;;
32808;SDS011;19159;48.178;16.386;2023-11-18T04:43:06;2.35;;;1.42;;
32808;SDS011;19159;48.178;16.386;2023-11-18T04:45:32;2.15;;;1.60;;
32808;SDS011;19159;48.178;16.386;2023-11-18T04:47:57;2.38;;;1.50;;
32808;SDS011;19159;48.178;16.386;2023-11-18T04:50:24;1.70;;;1.50;;
32808;SDS011;19159;48.178;16.386;2023-11-18T04:52:50;2.65;;;1.80;;
32808;SDS011;19159;48.178;16.386;2023-11-18T04:55:16;1.92;;;1.73;;
32808;SDS011;19159;48.178;16.386;2023-11-18T04:57:41;2.00;;;1.60;;
32808;SDS011;19159;48.178;16.386;2023-11-18T05:00:08;3.15;;;2.25;;
32808;SDS011;19159;48.178;16.386;2023-11-18T05:02:37;3.83;;;1.88;;
32808;SDS011;19159;48.178;16.386;2023-11-18T05:05:03;2.63;;;1.75;;
32808;SDS011;19159;48.178;16.386;2023-11-18T05:07:32;2.85;;;1.92;;
32808;SDS011;19159;48.178;16.386;2023-11-18T05:09:59;2.28;;;2.05;;
32808;SDS011;19159;48.178;16.386;2023-11-18T05:12:25;3.50;;;2.20;;
32808;SDS011;19159;48.178;16.386;2023-11-18T05:14:51;4.07;;;2.28;;
32808;SDS011;19159;48.178;16.386;2023-11-18T05:17:17;4.68;;;2.25;;
32808;SDS011;19159;48.178;16.386;2023-11-18T05:19:43;2.40;;;2.20;;
32808;SDS011;19159;48.178;16.386;2023-11-18T05:22:09;4.72;;;2.40;;
32808;SDS011;19159;48.178;16.386;2023-11-18T05:24:34;3.25;;;2.50;;
32808;SDS011;19159;48.178;16.386;2023-11-18T05:27:00;7.95;;;2.55;;
32808;SDS011;19159;48.178;16.386;2023-11-18T05:29:27;3.88;;;2.65;;
32808;SDS011;19159;48.178;16.386;2023-11-18T05:31:53;3.72;;;2.20;;
32808;SDS011;19159;48.178;16.386;2023-11-18T05:34:22;3.38;;;2.83;;
32808;SDS011;19159;48.178;16.386;2023-11-18T05:36:48;2.17;;;1.98;;
32808;SDS011;19159;48.178;16.386;2023-11-18T05:39:16;2.97;;;2.30;;
32808;SDS011;19159;48.178;16.386;2023-11-18T05:41:42;2.63;;;2.35;;
32808;SDS011;19159;48.178;16.386;2023-11-18T05:44:10;2.78;;;2.30;;
32808;SDS011;19159;48.178;16.386;2023-11-18T05:46:42;2.53;;;2.33;;
32808;SDS011;19159;48.178;16.386;2023-11-18T05:49:11;3.42;;;2.60;;
32808;SDS011;19159;48.178;16.386;2023-11-18T05:51:38;2.30;;;2.03;;
32808;SDS011;19159;48.178;16.386;2023-11-18T05:54:05;3.28;;;2.17;;
32808;SDS011;19159;48.178;16.386;2023-11-18T05:56:32;3.05;;;2.17;;
32808;SDS011;19159;48.178;16.386;2023-11-18T05:58:57;4.18;;;2.03;;
32808;SDS011;19159;48.178;16.386;2023-11-18T06:01:23;4.18;;;2.50;;
32808;SDS011;19159;48.178;16.386;2023-11-18T06:03:52;3.22;;;2.35;;
32808;SDS011;19159;48.178;16.386;2023-11-18T06:06:18;2.70;;;2.10;;
32808;SDS011;19159;48.178;16.386;2023-11-18T06:08:46;3.95;;;2.13;;
32808;SDS011;19159;48.178;16.386;2023-11-18T06:11:13;2.60;;;2.17;;
32808;SDS011;19159;48.178;16.386;2023-11-18T06:13:43;6.00;;;2.63;;
32808;SDS011;19159;48.178;16.386;2023-11-18T06:16:14;2.42;;;2.13;;
32808;SDS011;19159;48.178;16.386;2023-11-18T06:18:51;3.30;;;2.13;;
32808;SDS011;19159;48.178;16.386;2023-11-18T06:21:22;2.22;;;2.00;;
32808;SDS011;19159;48.178;16.386;2023-11-18T06:23:56;2.95;;;2.30;;
32808;SDS011;19159;48.178;16.386;2023-11-18T06:26:25;3.58;;;2.55;;
32808;SDS011;19159;48.178;16.386;2023-11-18T06:28:52;3.90;;;2.20;;
32808;SDS011;19159;48.178;16.386;2023-11-18T06:31:19;2.75;;;2.50;;
32808;SDS011;19159;48.178;16.386;2023-11-18T06:33:46;4.72;;;2.63;;
32808;SDS011;19159;48.178;16.386;2023-11-18T06:38:42;2.90;;;2.33;;
32808;SDS011;19159;48.178;16.386;2023-11-18T06:41:12;4.35;;;2.33;;
32808;SDS011;19159;48.178;16.386;2023-11-18T06:43:39;3.40;;;2.80;;
32808;SDS011;19159;48.178;16.386;2023-11-18T06:46:28;4.03;;;2.85;;
32808;SDS011;19159;48.178;16.386;2023-11-18T06:49:04;7.68;;;3.67;;
32808;SDS011;19159;48.178;16.386;2023-11-18T06:51:32;2.67;;;2.38;;
32808;SDS011;19159;48.178;16.386;2023-11-18T06:54:00;3.70;;;2.72;;
32808;SDS011;19159;48.178;16.386;2023-11-18T06:56:33;2.60;;;2.40;;
32808;SDS011;19159;48.178;16.386;2023-11-18T06:59:01;3.47;;;2.83;;
32808;SDS011;19159;48.178;16.386;2023-11-18T07:01:27;2.97;;;2.42;;
32808;SDS011;19159;48.178;16.386;2023-11-18T07:03:54;2.70;;;2.20;;
32808;SDS011;19159;48.178;16.386;2023-11-18T07:06:21;4.15;;;2.53;;
32808;SDS011;19159;48.178;16.386;2023-11-18T07:08:51;4.22;;;2.50;;
32808;SDS011;19159;48.178;16.386;2023-11-18T07:11:18;3.47;;;2.83;;
32808;SDS011;19159;48.178;16.386;2023-11-18T07:13:46;3.58;;;2.45;;
32808;SDS011;19159;48.178;16.386;2023-11-18T07:16:13;2.65;;;2.30;;
32808;SDS011;19159;48.178;16.386;2023-11-18T07:18:39;3.17;;;2.50;;
32808;SDS011;19159;48.178;16.386;2023-11-18T07:21:07;3.92;;;2.20;;
32808;SDS011;19159;48.178;16.386;2023-11-18T07:23:34;3.90;;;2.65;;
32808;SDS011;19159;48.178;16.386;2023-11-18T07:26:00;2.65;;;2.33;;
32808;SDS011;19159;48.178;16.386;2023-11-18T07:28:28;2.65;;;2.45;;
32808;SDS011;19159;48.178;16.386;2023-11-18T07:30:54;3.42;;;2.33;;
32808;SDS011;19159;48.178;16.386;2023-11-18T07:33:20;3.08;;;2.15;;
32808;SDS011;19159;48.178;16.386;2023-11-18T07:35:46;3.25;;;2.10;;
32808;SDS011;19159;48.178;16.386;2023-11-18T07:38:13;4.28;;;2.10;;
32808;SDS011;19159;48.178;16.386;2023-11-18T07:40:39;2.90;;;2.30;;
32808;SDS011;19159;48.178;16.386;2023-11-18T07:43:13;3.42;;;2.15;;
32808;SDS011;19159;48.178;16.386;2023-11-18T07:45:40;3.08;;;2.30;;
32808;SDS011;19159;48.178;16.386;2023-11-18T07:48:07;3.13;;;2.17;;
32808;SDS011;19159;48.178;16.386;2023-11-18T07:50:34;4.15;;;2.78;;
32808;SDS011;19159;48.178;16.386;2023-11-18T07:53:00;2.80;;;2.30;;
32808;SDS011;19159;48.178;16.386;2023-11-18T07:55:27;3.38;;;2.50;;
32808;SDS011;19159;48.178;16.386;2023-11-18T07:57:53;4.78;;;2.88;;
32808;SDS011;19159;48.178;16.386;2023-11-18T08:00:19;3.00;;;2.58;;
32808;SDS011;19159;48.178;16.386;2023-11-18T08:02:46;3.13;;;2.55;;
32808;SDS011;19159;48.178;16.386;2023-11-18T08:05:11;4.10;;;2.80;;
32808;SDS011;19159;48.178;16.386;2023-11-18T08:07:43;4.22;;;2.40;;
32808;SDS011;19159;48.178;16.386;2023-11-18T08:10:11;4.20;;;2.90;;
32808;SDS011;19159;48.178;16.386;2023-11-18T08:12:38;3.33;;;2.85;;
32808;SDS011;19159;48.178;16.386;2023-11-18T08:15:05;3.38;;;2.63;;
32808;SDS011;19159;48.178;16.386;2023-11-18T08:17:31;3.47;;;2.58;;
32808;SDS011;19159;48.178;16.386;2023-11-18T08:19:58;3.42;;;2.47;;
32808;SDS011;19159;48.178;16.386;2023-11-18T08:22:25;2.88;;;2.58;;
32808;SDS011;19159;48.178;16.386;2023-11-18T08:24:50;4.65;;;2.70;;
32808;SDS011;19159;48.178;16.386;2023-11-18T08:27:16;3.15;;;2.55;;
32808;SDS011;19159;48.178;16.386;2023-11-18T08:29:42;4.30;;;2.53;;
32808;SDS011;19159;48.178;16.386;2023-11-18T08:32:07;5.45;;;2.72;;
32808;SDS011;19159;48.178;16.386;2023-11-18T08:34:37;5.25;;;3.30;;
32808;SDS011;19159;48.178;16.386;2023-11-18T08:37:03;4.05;;;2.38;;
32808;SDS011;19159;48.178;16.386;2023-11-18T08:39:29;4.25;;;2.30;;
32808;SDS011;19159;48.178;16.386;2023-11-18T08:41:55;3.95;;;2.40;;
32808;SDS011;19159;48.178;16.386;2023-11-18T08:44:21;2.83;;;2.00;;
32808;SDS011;19159;48.178;16.386;2023-11-18T08:46:47;5.05;;;3.65;;
32808;SDS011;19159;48.178;16.386;2023-11-18T08:49:14;3.70;;;2.95;;
32808;SDS011;19159;48.178;16.386;2023-11-18T08:51:46;4.95;;;2.50;;
32808;SDS011;19159;48.178;16.386;2023-11-18T08:54:20;2.17;;;1.80;;
32808;SDS011;19159;48.178;16.386;2023-11-18T08:57:02;3.65;;;2.13;;
32808;SDS011;19159;48.178;16.386;2023-11-18T08:59:29;3.05;;;2.50;;
32808;SDS011;19159;48.178;16.386;2023-11-18T09:01:55;3.10;;;2.22;;
32808;SDS011;19159;48.178;16.386;2023-11-18T09:04:24;3.25;;;2.58;;
32808;SDS011;19159;48.178;16.386;2023-11-18T09:06:51;4.18;;;2.88;;
32808;SDS011;19159;48.178;16.386;2023-11-18T09:09:23;3.10;;;2.70;;
32808;SDS011;19159;48.178;16.386;2023-11-18T09:11:56;3.85;;;2.92;;
32808;SDS011;19159;48.178;16.386;2023-11-18T09:14:25;5.32;;;3.22;;
32808;SDS011;19159;48.178;16.386;2023-11-18T09:16:52;4.15;;;2.95;;
32808;SDS011;19159;48.178;16.386;2023-11-18T09:19:21;4.25;;;2.95;;
32808;SDS011;19159;48.178;16.386;2023-11-18T09:21:47;3.28;;;2.47;;
32808;SDS011;19159;48.178;16.386;2023-11-18T09:24:13;4.03;;;2.88;;
32808;SDS011;19159;48.178;16.386;2023-11-18T09:26:43;3.33;;;2.42;;
32808;SDS011;19159;48.178;16.386;2023-11-18T09:29:12;5.22;;;3.50;;
32808;SDS011;19159;48.178;16.386;2023-11-18T09:31:42;3.80;;;3.25;;
32808;SDS011;19159;48.178;16.386;2023-11-18T09:34:15;3.75;;;3.08;;
32808;SDS011;19159;48.178;16.386;2023-11-18T09:36:42;2.63;;;2.30;;
32808;SDS011;19159;48.178;16.386;2023-11-18T09:39:08;3.53;;;2.83;;
32808;SDS011;19159;48.178;16.386;2023-11-18T09:41:40;4.22;;;3.08;;
32808;SDS011;19159;48.178;16.386;2023-11-18T09:44:06;2.97;;;2.67;;
32808;SDS011;19159;48.178;16.386;2023-11-18T09:46:32;5.57;;;2.67;;
32808;SDS011;19159;48.178;16.386;2023-11-18T09:51:50;3.47;;;2.75;;
32808;SDS011;19159;48.178;16.386;2023-11-18T09:57:27;3.75;;;2.80;;
32808;SDS011;19159;48.178;16.386;2023-11-18T10:00:05;7.00;;;2.92;;
32808;SDS011;19159;48.178;16.386;2023-11-18T10:02:44;3.45;;;2.55;;
32808;SDS011;19159;48.178;16.386;2023-11-18T10:05:11;4.18;;;3.05;;
32808;SDS011;19159;48.178;16.386;2023-11-18T10:07:39;3.60;;;2.50;;
32808;SDS011;19159;48.178;16.386;2023-11-18T10:10:07;3.25;;;2.60;;
32808;SDS011;19159;48.178;16.386;2023-11-18T10:12:42;4.82;;;2.83;;
32808;SDS011;19159;48.178;16.386;2023-11-18T10:15:17;3.97;;;3.10;;
32808;SDS011;19159;48.178;16.386;2023-11-18T10:17:48;4.80;;;3.20;;
32808;SDS011;19159;48.178;16.386;2023-11-18T10:23:09;4.60;;;3.42;;
32808;SDS011;19159;48.178;16.386;2023-11-18T10:25:37;11.05;;;3.30;;
32808;SDS011;19159;48.178;16.386;2023-11-18T10:28:20;4.75;;;3.72;;
32808;SDS011;19159;48.178;16.386;2023-11-18T10:31:05;3.60;;;3.17;;
32808;SDS011;19159;48.178;16.386;2023-11-18T10:33:34;5.15;;;3.60;;
32808;SDS011;19159;48.178;16.386;2023-11-18T10:36:02;6.05;;;4.05;;
32808;SDS011;19159;48.178;16.386;2023-11-18T10:38:30;4.60;;;3.50;;
32808;SDS011;19159;48.178;16.386;2023-11-18T10:40:57;5.57;;;3.65;;
32808;SDS011;19159;48.178;16.386;2023-11-18T10:43:26;3.92;;;3.35;;
32808;SDS011;19159;48.178;16.386;2023-11-18T10:46:04;5.70;;;3.85;;
32808;SDS011;19159;48.178;16.386;2023-11-18T10:48:40;4.55;;;3.53;;
32808;SDS011;19159;48.178;16.386;2023-11-18T10:51:11;4.40;;;3.58;;
32808;SDS011;19159;48.178;16.386;2023-11-18T10:53:39;5.63;;;3.55;;
32808;SDS011;19159;48.178;16.386;2023-11-18T10:56:18;5.97;;;3.83;;
32808;SDS011;19159;48.178;16.386;2023-11-18T10:58:57;3.70;;;3.40;;
32808;SDS011;19159;48.178;16.386;2023-11-18T11:01:33;3.47;;;2.72;;
32808;SDS011;19159;48.178;16.386;2023-11-18T11:04:04;4.50;;;3.22;;
32808;SDS011;19159;48.178;16.386;2023-11-18T11:06:31;3.42;;;3.03;;
32808;SDS011;19159;48.178;16.386;2023-11-18T11:08:58;4.50;;;3.40;;
32808;SDS011;19159;48.178;16.386;2023-11-18T11:11:24;4.03;;;3.45;;
32808;SDS011;19159;48.178;16.386;2023-11-18T11:14:00;3.10;;;2.65;;
32808;SDS011;19159;48.178;16.386;2023-11-18T11:16:28;5.25;;;3.40;;
32808;SDS011;19159;48.178;16.386;2023-11-18T11:19:08;4.07;;;2.78;;
32808;SDS011;19159;48.178;16.386;2023-11-18T11:21:49;5.55;;;3.00;;
32808;SDS011;19159;48.178;16.386;2023-11-18T11:24:22;3.78;;;2.80;;
32808;SDS011;19159;48.178;16.386;2023-11-18T11:29:45;4.00;;;3.10;;
32808;SDS011;19159;48.178;16.386;2023-11-18T11:32:29;3.42;;;3.10;;
32808;SDS011;19159;48.178;16.386;2023-11-18T11:35:03;4.28;;;3.15;;
32808;SDS011;19159;48.178;16.386;2023-11-18T11:37:42;3.30;;;2.88;;
32808;SDS011;19159;48.178;16.386;2023-11-18T11:40:10;3.33;;;2.80;;
32808;SDS011;19159;48.178;16.386;2023-11-18T11:42:38;5.82;;;3.45;;
32808;SDS011;19159;48.178;16.386;2023-11-18T11:45:07;6.30;;;3.05;;
32808;SDS011;19159;48.178;16.386;2023-11-18T11:47:45;3.53;;;2.95;;
32808;SDS011;19159;48.178;16.386;2023-11-18T11:50:22;3.03;;;2.72;;
32808;SDS011;19159;48.178;16.386;2023-11-18T11:52:58;3.65;;;2.95;;
32808;SDS011;19159;48.178;16.386;2023-11-18T11:55:46;7.68;;;2.72;;
32808;SDS011;19159;48.178;16.386;2023-11-18T11:58:26;3.10;;;2.80;;
32808;SDS011;19159;48.178;16.386;2023-11-18T12:00:53;3.60;;;2.75;;
32808;SDS011;19159;48.178;16.386;2023-11-18T12:03:21;3.25;;;2.95;;
32808;SDS011;19159;48.178;16.386;2023-11-18T12:05:48;5.25;;;3.10;;
32808;SDS011;19159;48.178;16.386;2023-11-18T12:08:17;3.30;;;2.97;;
32808;SDS011;19159;48.178;16.386;2023-11-18T12:10:50;3.75;;;3.22;;
32808;SDS011;19159;48.178;16.386;2023-11-18T12:13:21;4.03;;;3.60;;
32808;SDS011;19159;48.178;16.386;2023-11-18T12:15:53;3.30;;;3.00;;
32808;SDS011;19159;48.178;16.386;2023-11-18T12:18:22;4.85;;;3.17;;
32808;SDS011;19159;48.178;16.386;2023-11-18T12:20:49;4.50;;;3.13;;
32808;SDS011;19159;48.178;16.386;2023-11-18T12:23:27;4.20;;;3.25;;
32808;SDS011;19159;48.178;16.386;2023-11-18T12:25:53;5.93;;;3.30;;
32808;SDS011;19159;48.178;16.386;2023-11-18T12:28:21;4.43;;;3.50;;
32808;SDS011;19159;48.178;16.386;2023-11-18T12:30:52;4.18;;;3.33;;
32808;SDS011;19159;48.178;16.386;2023-11-18T12:33:24;4.40;;;3.17;;
32808;SDS011;19159;48.178;16.386;2023-11-18T12:41:38;4.00;;;3.30;;
32808;SDS011;19159;48.178;16.386;2023-11-18T12:44:15;3.90;;;3.50;;
32808;SDS011;19159;48.178;16.386;2023-11-18T12:47:01;7.68;;;4.32;;
32808;SDS011;19159;48.178;16.386;2023-11-18T12:49:42;3.35;;;3.00;;
32808;SDS011;19159;48.178;16.386;2023-11-18T12:52:09;3.88;;;3.33;;
32808;SDS011;19159;48.178;16.386;2023-11-18T12:54:36;5.30;;;2.67;;
32808;SDS011;19159;48.178;16.386;2023-11-18T12:57:08;3.35;;;3.05;;
32808;SDS011;19159;48.178;16.386;2023-11-18T12:59:36;3.33;;;2.70;;
32808;SDS011;19159;48.178;16.386;2023-11-18T13:02:06;3.65;;;2.83;;
32808;SDS011;19159;48.178;16.386;2023-11-18T13:04:43;4.65;;;3.50;;
32808;SDS011;19159;48.178;16.386;2023-11-18T13:07:12;4.32;;;3.20;;
32808;SDS011;19159;48.178;16.386;2023-11-18T13:09:42;3.67;;;2.88;;
32808;SDS011;19159;48.178;16.386;2023-11-18T13:12:10;3.30;;;2.80;;
32808;SDS011;19159;48.178;16.386;2023-11-18T13:14:39;5.35;;;2.45;;
32808;SDS011;19159;48.178;16.386;2023-11-18T13:17:10;2.75;;;2.30;;
32808;SDS011;19159;48.178;16.386;2023-11-18T13:19:37;3.95;;;2.53;;
32808;SDS011;19159;48.178;16.386;2023-11-18T13:22:07;3.75;;;2.25;;
32808;SDS011;19159;48.178;16.386;2023-11-18T13:24:34;4.03;;;2.35;;
32808;SDS011;19159;48.178;16.386;2023-11-18T13:27:01;3.78;;;2.13;;
32808;SDS011;19159;48.178;16.386;2023-11-18T13:29:31;2.38;;;1.80;;
32808;SDS011;19159;48.178;16.386;2023-11-18T13:31:59;4.20;;;1.90;;
32808;SDS011;19159;48.178;16.386;2023-11-18T13:34:28;3.67;;;1.90;;
32808;SDS011;19159;48.178;16.386;2023-11-18T13:36:59;2.33;;;2.10;;
32808;SDS011;19159;48.178;16.386;2023-11-18T13:39:25;3.08;;;2.00;;
32808;SDS011;19159;48.178;16.386;2023-11-18T13:41:56;3.03;;;2.35;;
32808;SDS011;19159;48.178;16.386;2023-11-18T13:44:35;2.97;;;1.92;;
32808;SDS011;19159;48.178;16.386;2023-11-18T13:47:06;3.25;;;2.08;;
32808;SDS011;19159;48.178;16.386;2023-11-18T13:49:32;2.08;;;1.88;;
32808;SDS011;19159;48.178;16.386;2023-11-18T13:52:02;2.90;;;2.33;;
32808;SDS011;19159;48.178;16.386;2023-11-18T13:54:28;2.45;;;2.08;;
32808;SDS011;19159;48.178;16.386;2023-11-18T13:57:03;3.38;;;2.30;;
32808;SDS011;19159;48.178;16.386;2023-11-18T13:59:30;2.33;;;2.00;;
32808;SDS011;19159;48.178;16.386;2023-11-18T14:01:57;2.75;;;2.00;;
32808;SDS011;19159;48.178;16.386;2023-11-18T14:04:27;2.25;;;2.00;;
32808;SDS011;19159;48.178;16.386;2023-11-18T14:07:03;3.08;;;2.30;;
32808;SDS011;19159;48.178;16.386;2023-11-18T14:09:30;3.20;;;2.28;;
32808;SDS011;19159;48.178;16.386;2023-11-18T14:12:00;3.28;;;1.95;;
32808;SDS011;19159;48.178;16.386;2023-11-18T14:14:27;3.90;;;1.83;;
32808;SDS011;19159;48.178;16.386;2023-11-18T14:16:53;3.33;;;2.40;;
32808;SDS011;19159;48.178;16.386;2023-11-18T14:19:23;3.65;;;2.10;;
32808;SDS011;19159;48.178;16.386;2023-11-18T14:21:50;3.10;;;2.60;;
32808;SDS011;19159;48.178;16.386;2023-11-18T14:24:16;2.17;;;1.90;;
32808;SDS011;19159;48.178;16.386;2023-11-18T14:26:42;2.42;;;2.05;;
32808;SDS011;19159;48.178;16.386;2023-11-18T14:29:09;3.20;;;2.50;;
32808;SDS011;19159;48.178;16.386;2023-11-18T14:31:36;2.20;;;2.00;;
32808;SDS011;19159;48.178;16.386;2023-11-18T14:34:02;2.97;;;2.10;;
32808;SDS011;19159;48.178;16.386;2023-11-18T14:36:28;5.35;;;2.67;;
32808;SDS011;19159;48.178;16.386;2023-11-18T14:38:54;4.10;;;2.55;;
32808;SDS011;19159;48.178;16.386;2023-11-18T14:41:20;2.75;;;2.13;;
32808;SDS011;19159;48.178;16.386;2023-11-18T14:43:50;2.22;;;2.03;;
32808;SDS011;19159;48.178;16.386;2023-11-18T14:46:16;2.47;;;1.98;;
32808;SDS011;19159;48.178;16.386;2023-11-18T14:48:43;2.28;;;2.00;;
32808;SDS011;19159;48.178;16.386;2023-11-18T14:51:09;2.55;;;2.00;;
32808;SDS011;19159;48.178;16.386;2023-11-18T14:53:35;2.22;;;2.00;;
32808;SDS011;19159;48.178;16.386;2023-11-18T14:56:02;2.22;;;1.77;;
32808;SDS011;19159;48.178;16.386;2023-11-18T14:58:30;2.08;;;1.65;;
32808;SDS011;19159;48.178;16.386;2023-11-18T15:00:57;2.53;;;1.90;;